Date,TemperatureHighF,TemperatureAvgF,TemperatureLowF,DewpointHighF,DewpointAvgF,DewpointLowF,HumidityHigh,HumidityAvg,HumidityLow,PressureMaxIn,PressureMinIn,WindSpeedMaxMPH,WindSpeedAvgMPH,GustSpeedMaxMPH,PrecipitationSumIn
2013-1-1,35.1,29.1,26.7,21.8,17.9,15.3,66,63,58,30.04,29.92,12,2,12,0.06
2013-1-2,27.1,25.0,22.6,18.1,16.7,15.4,75,70,64,30.23,30.02,18,4,18,0.00
2013-1-3,32.5,23.5,11.7,24.4,17.0,9.1,92,76,57,30.24,30.09,16,3,16,0.00
2013-1-4,34.8,31.9,28.9,25.1,23.1,20.3,76,70,61,30.12,30.00,28,8,28,0.00
2013-1-5,37.4,31.2,27.5,26.2,23.8,20.2,85,74,63,30.39,30.09,15,4,15,0.00
2013-1-6,40.1,33.4,27.9,32.3,27.8,23.7,88,80,65,30.19,29.98,10,1,10,0.00
2013-1-7,41.4,35.3,23.4,32.5,28.7,21.1,91,77,58,30.39,30.10,17,4,17,0.00
2013-1-8,40.7,27.1,17.1,29.6,23.0,15.5,95,85,61,30.41,30.33,6,0,6,0.00
2013-1-9,41.4,27.5,20.3,30.2,24.6,19.0,96,89,62,30.40,30.17,16,1,16,0.00
2013-1-10,47.1,36.2,28.5,31.8,28.5,24.6,89,74,52,30.60,30.33,12,2,12,0.00
2013-1-11,41.9,37.1,31.2,37.3,32.2,28.3,97,83,65,30.50,30.09,13,1,13,0.32
2013-1-12,41.1,37.4,35.3,40.6,36.9,34.7,99,98,97,30.16,30.09,4,0,4,0.01
2013-1-13,47.8,42.0,36.2,47.5,41.6,35.8,100,98,96,30.11,29.93,6,0,6,0.01
2013-1-14,49.9,43.6,36.5,46.6,35.5,25.7,100,75,43,30.35,29.85,18,2,18,0.09
2013-1-15,36.5,32.6,26.3,28.5,26.0,24.0,93,77,65,30.39,30.20,7,0,7,0.00
2013-1-16,34.0,32.0,30.2,32.5,30.7,28.5,98,95,87,30.20,29.88,8,1,8,0.00
2013-1-17,37.8,33.9,29.7,31.9,30.6,27.8,98,88,77,30.12,29.95,12,2,12,0.15
2013-1-18,31.3,26.8,22.4,27.7,14.9,8.9,89,62,42,30.46,30.05,17,3,17,0.00
2013-1-19,48.9,32.8,18.7,30.0,22.8,13.7,89,69,42,30.31,29.81,9,2,9,0.08
2013-1-20,48.8,37.9,23.5,32.5,21.1,9.7,88,52,34,30.10,29.66,48,7,48,0.01
2013-1-21,27.2,24.0,18.2,23.0,15.4,9.6,92,70,55,30.09,29.88,17,2,17,0.00
2013-1-22,18.6,13.4,8.3,11.1,1.7,-6.1,83,60,43,30.26,29.93,24,7,25,0.00
2013-1-23,17.6,10.6,6.7,5.8,2.5,-1.2,84,70,52,30.30,30.18,20,4,20,0.00
2013-1-24,24.9,15.1,6.4,8.4,4.3,0.3,86,64,37,30.53,30.14,19,3,19,0.00
2013-1-25,17.7,12.5,7.5,12.3,6.8,2.3,90,78,60,30.52,30.08,8,1,8,0.00
2013-1-26,27.7,16.6,9.5,16.4,11.3,6.9,90,80,61,30.44,30.11,10,2,10,0.00
2013-1-27,36.7,19.7,6.3,18.3,12.5,3.8,91,75,44,30.60,30.44,9,1,9,0.00
2013-1-28,33.1,29.2,22.9,32.4,26.5,16.9,98,90,74,30.47,30.02,4,1,6,0.00
2013-1-29,37.7,35.1,32.9,37.2,34.6,32.3,99,98,97,30.12,29.94,12,0,12,0.17
2013-1-30,61.4,49.2,36.2,57.5,47.9,35.8,100,96,86,29.95,29.17,23,2,23,0.78
2013-1-31,55.3,36.1,23.6,53.4,26.9,12.7,95,70,51,29.79,29.08,34,11,34,0.48